sensor_id;sensor_type;location;lat;lon;timestamp;P1;durP1;ratioP1;P2;durP2;ratioP2
11394;SDS011;5753;54.402;10.220;2023-10-31T00:00:38;9.73;;;3.88;;
11394;SDS011;5753;54.402;10.220;2023-10-31T00:03:04;6.25;;;3.83;;
11394;SDS011;5753;54.402;10.220;2023-10-31T00:05:30;6.28;;;3.13;;
11394;SDS011;5753;54.402;10.220;2023-10-31T00:07:56;10.93;;;4.32;;
11394;SDS011;5753;54.402;10.220;2023-10-31T00:10:23;7.30;;;4.13;;
11394;SDS011;5753;54.402;10.220;2023-10-31T00:12:49;6.03;;;4.28;;
11394;SDS011;5753;54.402;10.220;2023-10-31T00:15:15;13.20;;;6.65;;
11394;SDS011;5753;54.402;10.220;2023-10-31T00:17:41;5.97;;;5.30;;
11394;SDS011;5753;54.402;10.220;2023-10-31T00:20:07;8.18;;;3.78;;
11394;SDS011;5753;54.402;10.220;2023-10-31T00:22:33;8.73;;;5.72;;
11394;SDS011;5753;54.402;10.220;2023-10-31T00:24:59;4.20;;;3.80;;
11394;SDS011;5753;54.402;10.220;2023-10-31T00:27:25;8.30;;;4.55;;
11394;SDS011;5753;54.402;10.220;2023-10-31T00:29:51;13.48;;;6.35;;
11394;SDS011;5753;54.402;10.220;2023-10-31T00:32:17;8.27;;;3.50;;
11394;SDS011;5753;54.402;10.220;2023-10-31T00:34:44;8.50;;;4.32;;
11394;SDS011;5753;54.402;10.220;2023-10-31T00:37:10;7.18;;;3.97;;
11394;SDS011;5753;54.402;10.220;2023-10-31T00:39:37;6.95;;;4.65;;
11394;SDS011;5753;54.402;10.220;2023-10-31T00:42:03;4.75;;;3.35;;
11394;SDS011;5753;54.402;10.220;2023-10-31T00:44:29;4.50;;;3.75;;
11394;SDS011;5753;54.402;10.220;2023-10-31T00:46:55;4.53;;;4.03;;
11394;SDS011;5753;54.402;10.220;2023-10-31T00:49:21;4.90;;;3.90;;
11394;SDS011;5753;54.402;10.220;2023-10-31T00:51:47;6.70;;;5.25;;
11394;SDS011;5753;54.402;10.220;2023-10-31T00:54:13;6.82;;;4.55;;
11394;SDS011;5753;54.402;10.220;2023-10-31T00:56:39;3.88;;;3.47;;
11394;SDS011;5753;54.402;10.220;2023-10-31T00:59:05;5.68;;;4.82;;
11394;SDS011;5753;54.402;10.220;2023-10-31T01:01:31;14.73;;;6.05;;
11394;SDS011;5753;54.402;10.220;2023-10-31T01:03:57;7.35;;;4.68;;
11394;SDS011;5753;54.402;10.220;2023-10-31T01:06:23;6.40;;;3.50;;
11394;SDS011;5753;54.402;10.220;2023-10-31T01:08:49;7.13;;;5.22;;
11394;SDS011;5753;54.402;10.220;2023-10-31T01:11:15;5.55;;;3.45;;
11394;SDS011;5753;54.402;10.220;2023-10-31T01:13:41;6.13;;;5.05;;
11394;SDS011;5753;54.402;10.220;2023-10-31T01:16:08;9.13;;;5.78;;
11394;SDS011;5753;54.402;10.220;2023-10-31T01:18:34;11.23;;;7.28;;
11394;SDS011;5753;54.402;10.220;2023-10-31T01:21:00;8.85;;;5.53;;
11394;SDS011;5753;54.402;10.220;2023-10-31T01:23:26;4.35;;;3.95;;
11394;SDS011;5753;54.402;10.220;2023-10-31T01:25:52;5.18;;;4.63;;
11394;SDS011;5753;54.402;10.220;2023-10-31T01:28:18;5.80;;;4.78;;
11394;SDS011;5753;54.402;10.220;2023-10-31T01:30:44;4.57;;;3.35;;
11394;SDS011;5753;54.402;10.220;2023-10-31T01:33:10;8.27;;;4.78;;
11394;SDS011;5753;54.402;10.220;2023-10-31T01:35:36;5.90;;;4.32;;
11394;SDS011;5753;54.402;10.220;2023-10-31T01:38:02;4.38;;;2.97;;
11394;SDS011;5753;54.402;10.220;2023-10-31T01:40:29;9.90;;;4.75;;
11394;SDS011;5753;54.402;10.220;2023-10-31T01:42:55;4.75;;;3.83;;
11394;SDS011;5753;54.402;10.220;2023-10-31T01:45:21;4.75;;;4.28;;
11394;SDS011;5753;54.402;10.220;2023-10-31T01:47:47;6.93;;;4.40;;
11394;SDS011;5753;54.402;10.220;2023-10-31T01:50:14;6.40;;;4.65;;
11394;SDS011;5753;54.402;10.220;2023-10-31T01:52:42;6.90;;;4.68;;
11394;SDS011;5753;54.402;10.220;2023-10-31T01:55:09;7.03;;;6.20;;
11394;SDS011;5753;54.402;10.220;2023-10-31T01:57:36;9.35;;;5.57;;
11394;SDS011;5753;54.402;10.220;2023-10-31T02:00:03;4.03;;;3.53;;
11394;SDS011;5753;54.402;10.220;2023-10-31T02:02:30;7.95;;;4.43;;
11394;SDS011;5753;54.402;10.220;2023-10-31T02:05:00;9.77;;;5.20;;
11394;SDS011;5753;54.402;10.220;2023-10-31T02:07:26;7.40;;;4.63;;
11394;SDS011;5753;54.402;10.220;2023-10-31T02:09:52;5.75;;;4.57;;
11394;SDS011;5753;54.402;10.220;2023-10-31T02:12:34;6.53;;;4.72;;
11394;SDS011;5753;54.402;10.220;2023-10-31T02:15:01;7.45;;;5.18;;
11394;SDS011;5753;54.402;10.220;2023-10-31T02:17:28;13.35;;;8.02;;
11394;SDS011;5753;54.402;10.220;2023-10-31T02:19:54;6.82;;;5.05;;
11394;SDS011;5753;54.402;10.220;2023-10-31T02:22:21;7.10;;;6.50;;
11394;SDS011;5753;54.402;10.220;2023-10-31T02:24:48;5.93;;;4.43;;
11394;SDS011;5753;54.402;10.220;2023-10-31T02:27:14;10.10;;;6.30;;
11394;SDS011;5753;54.402;10.220;2023-10-31T02:29:40;7.97;;;5.50;;
11394;SDS011;5753;54.402;10.220;2023-10-31T02:32:06;8.27;;;6.00;;
11394;SDS011;5753;54.402;10.220;2023-10-31T02:34:32;8.60;;;5.47;;
11394;SDS011;5753;54.402;10.220;2023-10-31T02:36:59;8.27;;;6.28;;
11394;SDS011;5753;54.402;10.220;2023-10-31T02:39:25;6.57;;;5.53;;
11394;SDS011;5753;54.402;10.220;2023-10-31T02:41:51;7.47;;;5.55;;
11394;SDS011;5753;54.402;10.220;2023-10-31T02:44:17;7.55;;;6.38;;
11394;SDS011;5753;54.402;10.220;2023-10-31T02:46:44;7.38;;;5.22;;
11394;SDS011;5753;54.402;10.220;2023-10-31T02:49:10;6.18;;;4.93;;
11394;SDS011;5753;54.402;10.220;2023-10-31T02:51:36;7.45;;;6.22;;
11394;SDS011;5753;54.402;10.220;2023-10-31T02:54:02;7.53;;;4.60;;
11394;SDS011;5753;54.402;10.220;2023-10-31T02:56:28;9.32;;;5.45;;
11394;SDS011;5753;54.402;10.220;2023-10-31T02:58:54;6.68;;;4.50;;
11394;SDS011;5753;54.402;10.220;2023-10-31T03:01:20;8.43;;;5.10;;
11394;SDS011;5753;54.402;10.220;2023-10-31T03:03:46;8.05;;;5.32;;
11394;SDS011;5753;54.402;10.220;2023-10-31T03:06:13;5.10;;;3.85;;
11394;SDS011;5753;54.402;10.220;2023-10-31T03:08:39;5.80;;;3.42;;
11394;SDS011;5753;54.402;10.220;2023-10-31T03:11:05;6.60;;;4.30;;
11394;SDS011;5753;54.402;10.220;2023-10-31T03:13:31;5.07;;;4.05;;
11394;SDS011;5753;54.402;10.220;2023-10-31T03:15:57;6.93;;;4.65;;
11394;SDS011;5753;54.402;10.220;2023-10-31T03:18:23;6.10;;;4.18;;
11394;SDS011;5753;54.402;10.220;2023-10-31T03:20:49;6.78;;;4.75;;
11394;SDS011;5753;54.402;10.220;2023-10-31T03:23:15;5.95;;;4.07;;
11394;SDS011;5753;54.402;10.220;2023-10-31T03:25:41;6.82;;;4.32;;
11394;SDS011;5753;54.402;10.220;2023-10-31T03:28:16;5.68;;;4.45;;
11394;SDS011;5753;54.402;10.220;2023-10-31T03:30:44;5.28;;;4.57;;
11394;SDS011;5753;54.402;10.220;2023-10-31T03:33:12;4.82;;;3.33;;
11394;SDS011;5753;54.402;10.220;2023-10-31T03:35:38;5.18;;;4.57;;
11394;SDS011;5753;54.402;10.220;2023-10-31T03:38:04;3.78;;;3.25;;
11394;SDS011;5753;54.402;10.220;2023-10-31T03:40:30;4.32;;;3.92;;
11394;SDS011;5753;54.402;10.220;2023-10-31T03:42:56;4.75;;;4.25;;
11394;SDS011;5753;54.402;10.220;2023-10-31T03:45:22;4.78;;;3.33;;
11394;SDS011;5753;54.402;10.220;2023-10-31T03:47:48;5.45;;;4.75;;
11394;SDS011;5753;54.402;10.220;2023-10-31T03:50:14;5.30;;;3.70;;
11394;SDS011;5753;54.402;10.220;2023-10-31T03:52:40;6.63;;;3.80;;
11394;SDS011;5753;54.402;10.220;2023-10-31T03:55:06;4.80;;;4.28;;
11394;SDS011;5753;54.402;10.220;2023-10-31T03:57:33;5.07;;;4.45;;
11394;SDS011;5753;54.402;10.220;2023-10-31T03:59:59;4.93;;;3.97;;
11394;SDS011;5753;54.402;10.220;2023-10-31T04:02:25;5.32;;;4.75;;
11394;SDS011;5753;54.402;10.220;2023-10-31T04:04:51;7.25;;;5.35;;
11394;SDS011;5753;54.402;10.220;2023-10-31T04:07:17;5.10;;;4.43;;
11394;SDS011;5753;54.402;10.220;2023-10-31T04:09:43;6.82;;;4.88;;
11394;SDS011;5753;54.402;10.220;2023-10-31T04:12:09;5.15;;;4.65;;
11394;SDS011;5753;54.402;10.220;2023-10-31T04:14:35;7.60;;;4.68;;
11394;SDS011;5753;54.402;10.220;2023-10-31T04:17:03;6.40;;;4.68;;
11394;SDS011;5753;54.402;10.220;2023-10-31T04:19:29;6.38;;;5.07;;
11394;SDS011;5753;54.402;10.220;2023-10-31T04:21:55;10.02;;;4.15;;
11394;SDS011;5753;54.402;10.220;2023-10-31T04:24:21;5.95;;;5.35;;
11394;SDS011;5753;54.402;10.220;2023-10-31T04:26:47;5.68;;;4.93;;
11394;SDS011;5753;54.402;10.220;2023-10-31T04:29:13;6.72;;;5.32;;
11394;SDS011;5753;54.402;10.220;2023-10-31T04:31:39;8.68;;;5.28;;
11394;SDS011;5753;54.402;10.220;2023-10-31T04:34:07;5.28;;;4.63;;
11394;SDS011;5753;54.402;10.220;2023-10-31T04:36:33;6.35;;;5.68;;
11394;SDS011;5753;54.402;10.220;2023-10-31T04:38:59;6.63;;;5.90;;
11394;SDS011;5753;54.402;10.220;2023-10-31T04:41:25;9.52;;;6.88;;
11394;SDS011;5753;54.402;10.220;2023-10-31T04:43:51;8.25;;;5.43;;
11394;SDS011;5753;54.402;10.220;2023-10-31T04:46:18;7.28;;;6.15;;
11394;SDS011;5753;54.402;10.220;2023-10-31T04:48:44;7.03;;;5.40;;
11394;SDS011;5753;54.402;10.220;2023-10-31T04:51:10;6.90;;;4.65;;
11394;SDS011;5753;54.402;10.220;2023-10-31T04:53:36;5.28;;;4.55;;
11394;SDS011;5753;54.402;10.220;2023-10-31T04:56:02;9.73;;;4.85;;
11394;SDS011;5753;54.402;10.220;2023-10-31T04:58:28;6.80;;;6.07;;
11394;SDS011;5753;54.402;10.220;2023-10-31T05:00:55;6.28;;;5.68;;
11394;SDS011;5753;54.402;10.220;2023-10-31T05:03:21;7.90;;;7.07;;
11394;SDS011;5753;54.402;10.220;2023-10-31T05:05:47;7.35;;;6.20;;
11394;SDS011;5753;54.402;10.220;2023-10-31T05:08:13;7.55;;;5.78;;
11394;SDS011;5753;54.402;10.220;2023-10-31T05:10:39;11.45;;;6.40;;
11394;SDS011;5753;54.402;10.220;2023-10-31T05:13:05;6.72;;;5.28;;
11394;SDS011;5753;54.402;10.220;2023-10-31T05:15:31;7.85;;;7.15;;
11394;SDS011;5753;54.402;10.220;2023-10-31T05:17:58;7.22;;;6.30;;
11394;SDS011;5753;54.402;10.220;2023-10-31T05:20:24;7.10;;;5.95;;
11394;SDS011;5753;54.402;10.220;2023-10-31T05:22:50;8.00;;;6.55;;
11394;SDS011;5753;54.402;10.220;2023-10-31T05:25:16;9.23;;;8.32;;
11394;SDS011;5753;54.402;10.220;2023-10-31T05:27:42;9.07;;;6.50;;
11394;SDS011;5753;54.402;10.220;2023-10-31T05:30:08;13.60;;;5.97;;
11394;SDS011;5753;54.402;10.220;2023-10-31T05:32:35;10.32;;;6.60;;
11394;SDS011;5753;54.402;10.220;2023-10-31T05:35:01;8.07;;;6.35;;
11394;SDS011;5753;54.402;10.220;2023-10-31T05:37:27;12.40;;;8.38;;
11394;SDS011;5753;54.402;10.220;2023-10-31T05:39:53;25.67;;;7.65;;
11394;SDS011;5753;54.402;10.220;2023-10-31T05:42:19;8.30;;;7.00;;
11394;SDS011;5753;54.402;10.220;2023-10-31T05:44:46;7.95;;;6.25;;
11394;SDS011;5753;54.402;10.220;2023-10-31T05:47:12;9.68;;;6.28;;
11394;SDS011;5753;54.402;10.220;2023-10-31T05:49:38;8.63;;;6.55;;
11394;SDS011;5753;54.402;10.220;2023-10-31T05:52:04;5.80;;;5.15;;
11394;SDS011;5753;54.402;10.220;2023-10-31T05:54:30;7.05;;;5.60;;
11394;SDS011;5753;54.402;10.220;2023-10-31T05:56:56;8.73;;;5.68;;
11394;SDS011;5753;54.402;10.220;2023-10-31T05:59:22;7.78;;;4.72;;
11394;SDS011;5753;54.402;10.220;2023-10-31T06:01:48;7.97;;;6.03;;
11394;SDS011;5753;54.402;10.220;2023-10-31T06:04:15;7.05;;;5.20;;
11394;SDS011;5753;54.402;10.220;2023-10-31T06:06:41;11.20;;;7.03;;
11394;SDS011;5753;54.402;10.220;2023-10-31T06:09:07;8.40;;;4.25;;
11394;SDS011;5753;54.402;10.220;2023-10-31T06:11:35;7.63;;;5.15;;
11394;SDS011;5753;54.402;10.220;2023-10-31T06:14:01;6.38;;;5.80;;
11394;SDS011;5753;54.402;10.220;2023-10-31T06:16:27;8.10;;;5.25;;
11394;SDS011;5753;54.402;10.220;2023-10-31T06:18:53;6.45;;;5.15;;
11394;SDS011;5753;54.402;10.220;2023-10-31T06:21:19;7.22;;;5.90;;
11394;SDS011;5753;54.402;10.220;2023-10-31T06:23:45;6.55;;;4.97;;
11394;SDS011;5753;54.402;10.220;2023-10-31T06:26:11;8.30;;;4.50;;
11394;SDS011;5753;54.402;10.220;2023-10-31T06:28:38;8.52;;;5.85;;
11394;SDS011;5753;54.402;10.220;2023-10-31T06:31:05;7.65;;;4.07;;
11394;SDS011;5753;54.402;10.220;2023-10-31T06:33:31;5.28;;;4.63;;
11394;SDS011;5753;54.402;10.220;2023-10-31T06:35:57;6.40;;;4.63;;
11394;SDS011;5753;54.402;10.220;2023-10-31T06:38:23;5.95;;;4.50;;
11394;SDS011;5753;54.402;10.220;2023-10-31T06:40:49;7.28;;;4.63;;
11394;SDS011;5753;54.402;10.220;2023-10-31T06:43:15;6.68;;;4.85;;
11394;SDS011;5753;54.402;10.220;2023-10-31T06:45:41;7.38;;;5.68;;
11394;SDS011;5753;54.402;10.220;2023-10-31T06:48:08;8.98;;;4.55;;
11394;SDS011;5753;54.402;10.220;2023-10-31T06:50:34;6.93;;;5.70;;
11394;SDS011;5753;54.402;10.220;2023-10-31T06:53:00;12.23;;;5.80;;
11394;SDS011;5753;54.402;10.220;2023-10-31T06:55:26;5.63;;;5.07;;
11394;SDS011;5753;54.402;10.220;2023-10-31T06:57:52;9.38;;;5.28;;
11394;SDS011;5753;54.402;10.220;2023-10-31T07:00:18;5.75;;;5.03;;
11394;SDS011;5753;54.402;10.220;2023-10-31T07:02:45;9.32;;;5.68;;
11394;SDS011;5753;54.402;10.220;2023-10-31T07:05:12;5.57;;;4.65;;
11394;SDS011;5753;54.402;10.220;2023-10-31T07:07:40;7.07;;;5.93;;
11394;SDS011;5753;54.402;10.220;2023-10-31T07:10:06;7.03;;;4.30;;
11394;SDS011;5753;54.402;10.220;2023-10-31T07:12:33;8.48;;;4.78;;
11394;SDS011;5753;54.402;10.220;2023-10-31T07:14:59;5.32;;;4.47;;
11394;SDS011;5753;54.402;10.220;2023-10-31T07:17:25;4.43;;;3.40;;
11394;SDS011;5753;54.402;10.220;2023-10-31T07:19:51;4.18;;;3.00;;
11394;SDS011;5753;54.402;10.220;2023-10-31T07:22:17;5.20;;;4.20;;
11394;SDS011;5753;54.402;10.220;2023-10-31T07:24:43;3.28;;;2.97;;
11394;SDS011;5753;54.402;10.220;2023-10-31T07:27:09;2.95;;;2.70;;
11394;SDS011;5753;54.402;10.220;2023-10-31T07:29:38;2.78;;;1.98;;
11394;SDS011;5753;54.402;10.220;2023-10-31T07:32:05;2.58;;;1.95;;
11394;SDS011;5753;54.402;10.220;2023-10-31T07:34:32;1.85;;;1.58;;
11394;SDS011;5753;54.402;10.220;2023-10-31T07:36:58;1.70;;;1.45;;
11394;SDS011;5753;54.402;10.220;2023-10-31T07:39:25;3.25;;;1.35;;
11394;SDS011;5753;54.402;10.220;2023-10-31T07:41:51;1.45;;;1.25;;
11394;SDS011;5753;54.402;10.220;2023-10-31T07:44:17;0.82;;;0.77;;
11394;SDS011;5753;54.402;10.220;2023-10-31T07:46:43;1.25;;;0.95;;
11394;SDS011;5753;54.402;10.220;2023-10-31T07:49:09;1.35;;;1.25;;
11394;SDS011;5753;54.402;10.220;2023-10-31T07:51:35;1.73;;;1.25;;
11394;SDS011;5753;54.402;10.220;2023-10-31T07:54:01;1.10;;;0.93;;
11394;SDS011;5753;54.402;10.220;2023-10-31T07:56:28;9.30;;;2.75;;
11394;SDS011;5753;54.402;10.220;2023-10-31T07:58:54;2.80;;;1.95;;
11394;SDS011;5753;54.402;10.220;2023-10-31T08:01:20;4.57;;;2.92;;
11394;SDS011;5753;54.402;10.220;2023-10-31T08:03:47;6.95;;;2.00;;
11394;SDS011;5753;54.402;10.220;2023-10-31T08:06:14;5.90;;;1.65;;
11394;SDS011;5753;54.402;10.220;2023-10-31T08:08:40;8.45;;;3.40;;
11394;SDS011;5753;54.402;10.220;2023-10-31T08:11:09;5.18;;;2.20;;
11394;SDS011;5753;54.402;10.220;2023-10-31T08:13:37;2.78;;;1.20;;
11394;SDS011;5753;54.402;10.220;2023-10-31T08:16:04;10.75;;;2.85;;
11394;SDS011;5753;54.402;10.220;2023-10-31T08:18:31;14.73;;;2.38;;
11394;SDS011;5753;54.402;10.220;2023-10-31T08:20:57;6.57;;;2.63;;
11394;SDS011;5753;54.402;10.220;2023-10-31T08:23:23;10.82;;;2.63;;
11394;SDS011;5753;54.402;10.220;2023-10-31T08:25:50;4.65;;;2.72;;
11394;SDS011;5753;54.402;10.220;2023-10-31T08:28:16;3.80;;;3.40;;
11394;SDS011;5753;54.402;10.220;2023-10-31T08:30:42;7.65;;;3.30;;
11394;SDS011;5753;54.402;10.220;2023-10-31T08:33:08;16.02;;;3.40;;
11394;SDS011;5753;54.402;10.220;2023-10-31T08:35:34;14.00;;;1.98;;
11394;SDS011;5753;54.402;10.220;2023-10-31T08:38:00;10.50;;;2.50;;
11394;SDS011;5753;54.402;10.220;2023-10-31T08:40:26;11.68;;;2.25;;
11394;SDS011;5753;54.402;10.220;2023-10-31T08:42:52;6.15;;;2.08;;
11394;SDS011;5753;54.402;10.220;2023-10-31T08:45:20;9.10;;;2.58;;
11394;SDS011;5753;54.402;10.220;2023-10-31T08:47:46;13.75;;;2.22;;
11394;SDS011;5753;54.402;10.220;2023-10-31T08:50:12;16.05;;;3.78;;
11394;SDS011;5753;54.402;10.220;2023-10-31T08:52:39;2.55;;;1.30;;
11394;SDS011;5753;54.402;10.220;2023-10-31T08:55:05;2.83;;;1.20;;
11394;SDS011;5753;54.402;10.220;2023-10-31T08:57:32;4.50;;;2.47;;
11394;SDS011;5753;54.402;10.220;2023-10-31T08:59:59;3.25;;;1.50;;
11394;SDS011;5753;54.402;10.220;2023-10-31T09:02:25;9.02;;;1.98;;
11394;SDS011;5753;54.402;10.220;2023-10-31T09:04:51;1.70;;;1.60;;
11394;SDS011;5753;54.402;10.220;2023-10-31T09:07:18;15.70;;;1.35;;
11394;SDS011;5753;54.402;10.220;2023-10-31T09:09:44;3.03;;;1.50;;
11394;SDS011;5753;54.402;10.220;2023-10-31T09:12:10;3.92;;;1.50;;
11394;SDS011;5753;54.402;10.220;2023-10-31T09:14:36;2.67;;;2.35;;
11394;SDS011;5753;54.402;10.220;2023-10-31T09:17:02;4.32;;;1.35;;
11394;SDS011;5753;54.402;10.220;2023-10-31T09:19:28;5.05;;;1.65;;
11394;SDS011;5753;54.402;10.220;2023-10-31T09:21:55;2.67;;;1.77;;
11394;SDS011;5753;54.402;10.220;2023-10-31T09:24:21;4.03;;;1.27;;
11394;SDS011;5753;54.402;10.220;2023-10-31T09:26:48;3.05;;;1.13;;
11394;SDS011;5753;54.402;10.220;2023-10-31T09:29:14;2.53;;;1.00;;
11394;SDS011;5753;54.402;10.220;2023-10-31T09:31:41;5.80;;;3.03;;
11394;SDS011;5753;54.402;10.220;2023-10-31T09:34:07;16.05;;;1.75;;
11394;SDS011;5753;54.402;10.220;2023-10-31T09:36:33;8.38;;;2.03;;
11394;SDS011;5753;54.402;10.220;2023-10-31T09:38:59;11.43;;;3.70;;
11394;SDS011;5753;54.402;10.220;2023-10-31T09:41:25;4.40;;;1.75;;
11394;SDS011;5753;54.402;10.220;2023-10-31T09:43:52;9.60;;;2.00;;
11394;SDS011;5753;54.402;10.220;2023-10-31T09:46:19;8.75;;;1.73;;
11394;SDS011;5753;54.402;10.220;2023-10-31T09:48:46;6.57;;;1.40;;
11394;SDS011;5753;54.402;10.220;2023-10-31T09:51:14;11.15;;;1.13;;
11394;SDS011;5753;54.402;10.220;2023-10-31T09:53:41;2.25;;;0.90;;
11394;SDS011;5753;54.402;10.220;2023-10-31T09:56:09;3.67;;;1.55;;
11394;SDS011;5753;54.402;10.220;2023-10-31T09:58:35;21.33;;;2.38;;
11394;SDS011;5753;54.402;10.220;2023-10-31T10:01:04;10.63;;;2.28;;
11394;SDS011;5753;54.402;10.220;2023-10-31T10:03:30;14.02;;;4.20;;
11394;SDS011;5753;54.402;10.220;2023-10-31T10:05:56;7.20;;;2.63;;
11394;SDS011;5753;54.402;10.220;2023-10-31T10:08:23;4.60;;;1.30;;
11394;SDS011;5753;54.402;10.220;2023-10-31T10:10:50;6.68;;;1.85;;
11394;SDS011;5753;54.402;10.220;2023-10-31T10:13:18;2.28;;;0.70;;
11394;SDS011;5753;54.402;10.220;2023-10-31T10:15:49;1.88;;;0.70;;
11394;SDS011;5753;54.402;10.220;2023-10-31T10:18:26;17.15;;;1.55;;
11394;SDS011;5753;54.402;10.220;2023-10-31T10:20:54;7.75;;;1.10;;
11394;SDS011;5753;54.402;10.220;2023-10-31T10:23:22;4.30;;;0.63;;
11394;SDS011;5753;54.402;10.220;2023-10-31T10:25:49;8.00;;;1.35;;
11394;SDS011;5753;54.402;10.220;2023-10-31T10:28:15;9.80;;;1.50;;
11394;SDS011;5753;54.402;10.220;2023-10-31T10:30:44;3.75;;;0.90;;
11394;SDS011;5753;54.402;10.220;2023-10-31T10:33:12;0.90;;;0.52;;
11394;SDS011;5753;54.402;10.220;2023-10-31T10:35:38;18.10;;;2.90;;
11394;SDS011;5753;54.402;10.220;2023-10-31T10:38:06;6.97;;;0.70;;
11394;SDS011;5753;54.402;10.220;2023-10-31T10:40:41;1.02;;;0.45;;
11394;SDS011;5753;54.402;10.220;2023-10-31T10:45:50;6.57;;;0.47;;
11394;SDS011;5753;54.402;10.220;2023-10-31T10:48:23;4.90;;;1.48;;
11394;SDS011;5753;54.402;10.220;2023-10-31T10:50:59;5.53;;;1.13;;
11394;SDS011;5753;54.402;10.220;2023-10-31T10:53:30;2.92;;;0.90;;
11394;SDS011;5753;54.402;10.220;2023-10-31T10:56:09;2.05;;;0.60;;
11394;SDS011;5753;54.402;10.220;2023-10-31T10:58:49;0.63;;;0.47;;
11394;SDS011;5753;54.402;10.220;2023-10-31T11:01:20;2.15;;;1.98;;
11394;SDS011;5753;54.402;10.220;2023-10-31T11:03:47;1.40;;;0.60;;
11394;SDS011;5753;54.402;10.220;2023-10-31T11:06:14;5.30;;;3.65;;
11394;SDS011;5753;54.402;10.220;2023-10-31T11:08:41;3.13;;;1.65;;
11394;SDS011;5753;54.402;10.220;2023-10-31T11:11:09;9.93;;;0.65;;
11394;SDS011;5753;54.402;10.220;2023-10-31T11:13:36;12.30;;;3.97;;
11394;SDS011;5753;54.402;10.220;2023-10-31T11:16:05;3.67;;;2.92;;
11394;SDS011;5753;54.402;10.220;2023-10-31T11:18:36;4.93;;;1.88;;
11394;SDS011;5753;54.402;10.220;2023-10-31T11:21:02;2.22;;;1.08;;
11394;SDS011;5753;54.402;10.220;2023-10-31T11:23:29;0.93;;;0.47;;
11394;SDS011;5753;54.402;10.220;2023-10-31T11:25:55;10.43;;;2.45;;
11394;SDS011;5753;54.402;10.220;2023-10-31T11:28:21;1.05;;;0.38;;
11394;SDS011;5753;54.402;10.220;2023-10-31T11:30:50;7.03;;;1.17;;
11394;SDS011;5753;54.402;10.220;2023-10-31T11:33:22;2.25;;;0.88;;
11394;SDS011;5753;54.402;10.220;2023-10-31T11:36:10;1.35;;;0.30;;
11394;SDS011;5753;54.402;10.220;2023-10-31T11:38:36;0.60;;;0.60;;
11394;SDS011;5753;54.402;10.220;2023-10-31T11:41:03;2.28;;;1.10;;
11394;SDS011;5753;54.402;10.220;2023-10-31T11:46:05;1.02;;;0.70;;
11394;SDS011;5753;54.402;10.220;2023-10-31T11:48:47;0.52;;;0.35;;
11394;SDS011;5753;54.402;10.220;2023-10-31T11:51:17;18.17;;;9.35;;
11394;SDS011;5753;54.402;10.220;2023-10-31T11:53:44;1.48;;;1.38;;
11394;SDS011;5753;54.402;10.220;2023-10-31T11:56:11;1.15;;;0.55;;
11394;SDS011;5753;54.402;10.220;2023-10-31T11:58:37;0.30;;;0.30;;
11394;SDS011;5753;54.402;10.220;2023-10-31T12:01:04;1.10;;;0.60;;
11394;SDS011;5753;54.402;10.220;2023-10-31T12:03:38;1.35;;;0.50;;
11394;SDS011;5753;54.402;10.220;2023-10-31T12:06:06;0.63;;;0.60;;
11394;SDS011;5753;54.402;10.220;2023-10-31T12:08:37;1.58;;;0.55;;
11394;SDS011;5753;54.402;10.220;2023-10-31T12:11:15;1.75;;;0.68;;
11394;SDS011;5753;54.402;10.220;2023-10-31T12:13:51;0.80;;;0.57;;
11394;SDS011;5753;54.402;10.220;2023-10-31T12:16:17;2.92;;;0.82;;
11394;SDS011;5753;54.402;10.220;2023-10-31T12:18:43;4.22;;;1.52;;
11394;SDS011;5753;54.402;10.220;2023-10-31T12:21:10;8.90;;;3.75;;
11394;SDS011;5753;54.402;10.220;2023-10-31T12:23:39;2.58;;;1.38;;
11394;SDS011;5753;54.402;10.220;2023-10-31T12:26:05;1.48;;;1.00;;
11394;SDS011;5753;54.402;10.220;2023-10-31T12:28:31;1.38;;;0.70;;
11394;SDS011;5753;54.402;10.220;2023-10-31T12:30:57;0.68;;;0.63;;
11394;SDS011;5753;54.402;10.220;2023-10-31T12:33:27;1.52;;;1.15;;
11394;SDS011;5753;54.402;10.220;2023-10-31T12:35:57;5.35;;;2.50;;
11394;SDS011;5753;54.402;10.220;2023-10-31T12:38:24;2.65;;;0.82;;
11394;SDS011;5753;54.402;10.220;2023-10-31T12:40:52;5.15;;;0.60;;
11394;SDS011;5753;54.402;10.220;2023-10-31T12:43:20;0.55;;;0.40;;
11394;SDS011;5753;54.402;10.220;2023-10-31T12:45:46;1.55;;;0.70;;
11394;SDS011;5753;54.402;10.220;2023-10-31T12:48:12;10.25;;;0.77;;
11394;SDS011;5753;54.402;10.220;2023-10-31T12:50:38;0.30;;;0.30;;
11394;SDS011;5753;54.402;10.220;2023-10-31T12:53:09;0.85;;;0.50;;
11394;SDS011;5753;54.402;10.220;2023-10-31T12:55:40;0.50;;;0.50;;
11394;SDS011;5753;54.402;10.220;2023-10-31T12:58:07;0.88;;;0.88;;
11394;SDS011;5753;54.402;10.220;2023-10-31T13:00:35;1.20;;;0.82;;
11394;SDS011;5753;54.402;10.220;2023-10-31T13:03:03;1.25;;;0.77;;
11394;SDS011;5753;54.402;10.220;2023-10-31T13:05:31;0.40;;;0.40;;
11394;SDS011;5753;54.402;10.220;2023-10-31T13:08:13;1.90;;;0.88;;
11394;SDS011;5753;54.402;10.220;2023-10-31T13:10:40;4.00;;;0.93;;
11394;SDS011;5753;54.402;10.220;2023-10-31T13:13:08;0.65;;;0.60;;
11394;SDS011;5753;54.402;10.220;2023-10-31T13:15:34;3.35;;;1.52;;
11394;SDS011;5753;54.402;10.220;2023-10-31T13:18:02;0.82;;;0.82;;
11394;SDS011;5753;54.402;10.220;2023-10-31T13:20:29;0.63;;;0.43;;
11394;SDS011;5753;54.402;10.220;2023-10-31T13:22:56;0.88;;;0.65;;
11394;SDS011;5753;54.402;10.220;2023-10-31T13:25:23;2.28;;;0.90;;
11394;SDS011;5753;54.402;10.220;2023-10-31T13:27:49;1.80;;;1.42;;
11394;SDS011;5753;54.402;10.220;2023-10-31T13:30:18;3.17;;;0.80;;
11394;SDS011;5753;54.402;10.220;2023-10-31T13:32:47;1.40;;;1.30;;
11394;SDS011;5753;54.402;10.220;2023-10-31T13:35:13;1.60;;;1.50;;
11394;SDS011;5753;54.402;10.220;2023-10-31T13:37:40;0.88;;;0.75;;
11394;SDS011;5753;54.402;10.220;2023-10-31T13:40:06;0.85;;;0.70;;
11394;SDS011;5753;54.402;10.220;2023-10-31T13:42:35;1.63;;;0.90;;
11394;SDS011;5753;54.402;10.220;2023-10-31T13:45:01;6.97;;;0.93;;
11394;SDS011;5753;54.402;10.220;2023-10-31T13:47:28;1.60;;;0.75;;
11394;SDS011;5753;54.402;10.220;2023-10-31T13:49:55;0.70;;;0.70;;
11394;SDS011;5753;54.402;10.220;2023-10-31T13:52:21;0.68;;;0.68;;
11394;SDS011;5753;54.402;10.220;2023-10-31T13:54:47;0.68;;;0.60;;
11394;SDS011;5753;54.402;10.220;2023-10-31T13:57:13;0.77;;;0.77;;
11394;SDS011;5753;54.402;10.220;2023-10-31T13:59:39;0.95;;;0.85;;
11394;SDS011;5753;54.402;10.220;2023-10-31T14:02:06;1.42;;;1.20;;
11394;SDS011;5753;54.402;10.220;2023-10-31T14:04:32;0.85;;;0.82;;
11394;SDS011;5753;54.402;10.220;2023-10-31T14:06:58;3.60;;;0.98;;
11394;SDS011;5753;54.402;10.220;2023-10-31T14:09:25;0.80;;;0.80;;
11394;SDS011;5753;54.402;10.220;2023-10-31T14:11:51;1.52;;;0.82;;
11394;SDS011;5753;54.402;10.220;2023-10-31T14:14:17;2.05;;;1.95;;
11394;SDS011;5753;54.402;10.220;2023-10-31T14:16:44;2.22;;;1.45;;
11394;SDS011;5753;54.402;10.220;2023-10-31T14:19:11;1.55;;;1.30;;
11394;SDS011;5753;54.402;10.220;2023-10-31T14:21:41;2.70;;;1.90;;
11394;SDS011;5753;54.402;10.220;2023-10-31T14:24:07;1.45;;;1.23;;
11394;SDS011;5753;54.402;10.220;2023-10-31T14:26:34;2.85;;;2.65;;
11394;SDS011;5753;54.402;10.220;2023-10-31T14:29:01;3.92;;;2.70;;
11394;SDS011;5753;54.402;10.220;2023-10-31T14:31:27;1.95;;;1.83;;
11394;SDS011;5753;54.402;10.220;2023-10-31T14:33:53;2.95;;;2.05;;
11394;SDS011;5753;54.402;10.220;2023-10-31T14:36:19;3.88;;;2.75;;
11394;SDS011;5753;54.402;10.220;2023-10-31T14:38:45;4.25;;;2.55;;
11394;SDS011;5753;54.402;10.220;2023-10-31T14:41:12;1.27;;;1.00;;
11394;SDS011;5753;54.402;10.220;2023-10-31T14:43:39;6.05;;;1.58;;
11394;SDS011;5753;54.402;10.220;2023-10-31T14:46:05;5.05;;;1.63;;
11394;SDS011;5753;54.402;10.220;2023-10-31T14:48:32;1.60;;;1.23;;